Timeline UpdatesTrip UpdatesNews PostsPvt PostsTravel TipsAdmin PostsConv PostsFollowed PostsChat RequestsBlog PostsPNR Posts

Disclaimer
Search
 
 
Sat Apr 19, 2014 02:16:09 ISTHomeTrainsΣChainsAtlasPNRForumGalleryNewsFAQTripsMembersLoginFeedback
No Recent News for this Train
Other Trains in the News **new
Latest...
⇐ Return Journey: Train# 51824

51823/Allahabad Farukhabad Passenger (UnReserved)

Sep 11 2013 (1:47PM)
Change Departure Station:
Change Arrival Station:
Post a Train Travel TipPost a Train Travel Tip **new
Post a Comment/Question/Picture/VideoPost a Comment/Question/Picture/Video
Pantry/Catering
✕ NO Pantry Car
✕ NO Catering
RSA - Rake Sharing
Rake/Coach Composition
Loco
News    PNR    Forum    Time-Table    Availability    Fare Chart    Map    Arr/Dep History    Trips    Gallery    ΣChains    X/O    Timeline    
Travel Time: 8h 36m    44 halts    Distance: 265 km    Avg Speed: 30 km/hr
Type: Passenger
Zone: NCR/North Central
Departs @ 08:34
Platform# ???
SMTWTFS
Kanwar/KUW 
Arrives @ 17:10
Platform# ???
SMTWTFS
Farrukhabad Junction/FBD 

44 halts. 44 intermediate Stations between Kanwar and Farrukhabad Junction

Show ALL intermediate Stations  Show Old Time-Table

#CodeStation NameX/OArrivesAvgDepartsAvgHaltPFDay#KmSpeedElevZoneAddress
1ALDAllahabad Junction (10)  -07:00-81-69.128100mNCRAllahabad 211003, Uttar Pradesh
2SFGSubedarGanj (3)X  07:08-07:09-1m--1-65.350100mNCRAllahabad, Uttar Pradesh
3BMUBamhrauliX  07:15-07:16-1m--1-60.356102mNCRAllahabad, Uttar Pradesh
4MREManauri  07:25-07:26-1m--1-51.846105mNCRSabderganj-Fatehpur Rd, Uttar Pradesh
5SYWNSaiyid Sarawan  07:32-07:33-1m--1-47.356106mNCR212203 ?, Uttar Pradesh
6MNJManoharGanj  07:41-07:42-1m--1-39.852104mNCRNational Highway 2, Uttar Pradesh
7BREBharwariX  07:51-07:52-1m--1-32.035108mNCRBharwari, Uttar Pradesh
8BDNPBidanpur  07:59-08:00-1m--1-28.054106mNCRBidanpur, Uttar Pradesh
9SJTShujaatpurXO  08:07-08:08-1m--1-21.766107mNCRNational Highway 2, Uttar Pradesh
10SROSirathu (2)  08:17-08:18-1m11-11.948109mNCRSirathu, Uttar Pradesh
11ASCEAthsaraiX  08:26-08:27-1m--1-5.454107mNCRAthsarai, Uttar Pradesh
12KUW»Kanwar»O  08:33-08:34-1m--10.052110mNCRNational Highway 2, Uttar Pradesh
13KTCEKatoghan  08:41-08:42-1m--16.152109mNCRNational Highway 2, Uttar Pradesh
14KGAKhaga (3)X  08:50-08:51-1m--113.064114mNCRFatehpur, Uttar Pradesh
15SNIESath NarainiX  08:58-08:59-1m--120.447114mNCRNational Highway 2, Uttar Pradesh
16RUBRasulabad  09:08-09:09-1m--127.561118mNCRRasulabad, Uttar Pradesh
17FYZFaizullapur  09:18-09:19-1m--136.651115mNCRFaizullapur, Uttar Pradesh
18RAMARamva  09:25-09:26-1m--141.739116mNCRforcing detours between Kanpur and Varanasi, Uttar Pradesh
19FTPFatehpur (3)  09:35-09:40-5m--147.770120mNCRFatehpur, Uttar Pradesh
20KKSKurasti Kalan  09:46-09:47-1m--154.761119mNCRJoniha Rd, Uttar Pradesh
21MWHMalwan (2)  09:56-09:57-1m--163.862122mNCRFatehpur, Uttar Pradesh
22KSQKanspur Gugauli  10:04-10:05-1m--171.060124mNCRNational Highway 2, Uttar Pradesh
23BKOBindki Road  10:13-10:14-1m--178.939124mNCRFatehpur, Uttar Pradesh
24AUNGAung  10:23-10:24-1m--184.855123mNCRNational Highway 2, Uttar Pradesh
25KBNKarbigwan  10:31-10:32-1m--191.253121mNCRFatehpur, Uttar Pradesh
26PMPRPrempur  10:38-10:39-1m--196.553125mNCRNational Highway 2, Uttar Pradesh
27SSLSirsaul (1)  10:46-10:47-1m11102.766125mNCRKANPUR-209 402, Uttar Pradesh
28RXMRooma (2)  10:53-10:55-2m--1109.355125mNCRKANPUR-208 008, Uttar Pradesh
29CHKChakeri (2)  11:00-11:02-2m--1113.846126mNCRKANPUR-208 008, Uttar Pradesh
30CNBIChandari (2)XO  11:11-11:12-1m--1120.75125mNCRKanpur Cantt, Uttar Pradesh
31CNBKanpur Central (10)XO  12:05-12:38-33m--1125.329128mNCRKanpur, Uttar Pradesh
32CPAKanpur Anwarganj (3)  12:43-12:48-5m--1127.726130mNERKANPUR-208 003, Uttar Pradesh
33RPORawatpur (1)  12:58-12:59-1m11132.044131mNERKANPUR-208 025, Uttar Pradesh
34KAPKalianpur (1)  13:06-13:07-1m11137.158133mNERKANPUR-208 017, Uttar Pradesh
35MDAMandhana Junction (1)X  13:14-13:16-2m11143.921132mNERKANPUR-209 217, Uttar Pradesh
36CBRChaubepurX  13:30-13:31-1m--1148.774133mNERKANPUR-209 203, Uttar Pradesh
37BJRBarrajpur  13:41-13:42-1m--1161.156132mNERShivarajpur, Uttar Pradesh
38UTPUtripura  13:50-13:51-1m--1168.660136mNERNH 91, Uttar Pradesh
39DUODhaursalar  13:57-13:58-1m--1174.749137mNERNational Highway 91, Uttar Pradesh
40BLUBilhaur  14:05-14:06-1m--1180.446134mNERKANPUR-209 202, Uttar Pradesh
41BKTSBakothikhas  14:13-14:14-1m--1185.858136mNERAraul, Uttar Pradesh
42ARLAroul  14:19-14:20-1m--1190.651142mNERAraul, Uttar Pradesh
43GWPGangawapur Halt  14:26-14:27-1m--1195.745141mNERAraul, Uttar Pradesh
44MNMUMani MauX  14:33-14:34-1m--1200.167141mNERNational Highway 91, Uttar Pradesh
45KJNKannauj  14:39-14:41-2m--1205.815144mNERKannauj, Uttar Pradesh
46KJNCKannauj City  14:49-14:50-1m--1207.887144mNERKannauj, Uttar Pradesh
47JPPJalalpur Panwara  14:55-14:56-1m--1215.013140mNERNational Highway 91, Uttar Pradesh
48JDAJasodaX  15:11-15:13-2m--1218.220144mNERNational Highway 91, Uttar Pradesh
49KHDPKhudlapur  15:25-15:26-1m--1222.149147mNERNational Highway 91, Uttar Pradesh
50GHJGursahaiGanj  15:33-15:34-1m--1227.855146mNERGursahaiganj, Uttar Pradesh
51MLKPMalikpurX  15:41-15:42-1m--1234.2937mNERMalancha-Mallickpur Raod, Uttar Pradesh
52KDJKhudaganj  15:48-15:49-1m--1243.533149mNERState Highway 29A, Uttar Pradesh
53SGRPSinghirampurO  15:56-15:57-1m--1247.49154mNERSH 29A, Uttar Pradesh
54KLJKamalGanj  16:20-16:22-2m--1250.830145mNERKamalganj, Uttar Pradesh
55YAGYaqutganj  16:30-16:31-1m--1254.948150mNERK. V. RRC, Uttar Pradesh
56FGRFatehgarh  16:37-16:38-1m--1259.710152mNERFatehgarh, Uttar Pradesh
57FBD•Farrukhabad Junction (5)•  17:10----1264.9-151mNERFarrukhabad, Uttar Pradesh
Scroll to Top
Scroll to Bottom